createdAt,value
2023-04-04T00:02:15.642Z,3.70
2023-04-04T00:04:42.684Z,3.40
2023-04-04T00:07:16.649Z,2.93
2023-04-04T00:09:49.982Z,3.73
2023-04-04T00:12:27.698Z,3.30
2023-04-04T00:14:55.511Z,3.60
2023-04-04T00:17:28.550Z,3.30
2023-04-04T00:19:58.270Z,3.03
2023-04-04T00:22:32.569Z,3.53
2023-04-04T00:25:05.619Z,3.47
2023-04-04T00:27:33.214Z,3.07
2023-04-04T00:30:06.539Z,3.30
2023-04-04T00:32:33.636Z,3.60
2023-04-04T00:35:07.593Z,3.47
2023-04-04T00:37:34.440Z,3.17
2023-04-04T00:40:08.562Z,3.37
2023-04-04T00:42:35.806Z,3.40
2023-04-04T00:45:09.515Z,2.93
2023-04-04T00:47:38.147Z,3.23
2023-04-04T00:50:12.612Z,3.40
2023-04-04T00:52:45.632Z,3.33
2023-04-04T00:55:19.588Z,2.93
2023-04-04T00:57:46.975Z,3.20
2023-04-04T01:00:22.716Z,2.87
2023-04-04T01:02:57.563Z,3.40
2023-04-04T01:05:31.536Z,3.40
2023-04-04T01:08:05.572Z,3.20
2023-04-04T01:10:46.519Z,3.47
2023-04-04T01:13:19.602Z,3.30
2023-04-04T01:15:46.589Z,3.27
2023-04-04T01:18:23.538Z,3.20
2023-04-04T01:20:59.308Z,3.33
2023-04-04T01:23:42.508Z,3.80
2023-04-04T01:26:09.806Z,3.20
2023-04-04T01:28:43.572Z,3.40
2023-04-04T01:31:13.390Z,3.20
2023-04-04T01:33:53.589Z,3.20
2023-04-04T01:36:43.328Z,3.13
2023-04-04T01:39:48.616Z,3.10
2023-04-04T01:42:17.152Z,2.93
2023-04-04T01:44:51.549Z,3.03
2023-04-04T01:47:25.593Z,3.20
2023-04-04T01:50:01.085Z,3.40
2023-04-04T01:52:34.549Z,3.37
2023-04-04T01:55:08.509Z,3.77
2023-04-04T01:57:41.944Z,3.80
2023-04-04T02:00:09.430Z,3.20
2023-04-04T02:02:42.727Z,3.47
2023-04-04T02:05:09.927Z,3.20
2023-04-04T02:07:43.551Z,3.17
2023-04-04T02:10:18.009Z,2.57
2023-04-04T02:12:52.528Z,3.17
2023-04-04T02:15:19.717Z,3.10
2023-04-04T02:17:56.656Z,3.20
2023-04-04T02:20:23.506Z,3.70
2023-04-04T02:23:01.636Z,3.00
2023-04-04T02:25:28.528Z,3.30
2023-04-04T02:28:02.514Z,3.10
2023-04-04T02:30:29.502Z,3.10
2023-04-04T02:33:06.702Z,2.87
2023-04-04T02:35:40.651Z,2.80
2023-04-04T02:38:07.952Z,2.77
2023-04-04T02:40:42.815Z,2.90
2023-04-04T02:43:09.925Z,3.00
2023-04-04T02:45:43.560Z,3.00
2023-04-04T02:48:11.128Z,3.00
2023-04-04T02:50:45.572Z,3.07
2023-04-04T02:53:12.552Z,2.80
2023-04-04T02:55:45.675Z,2.90
2023-04-04T02:58:12.552Z,2.97
2023-04-04T03:00:39.717Z,2.70
2023-04-04T03:03:13.775Z,2.67
2023-04-04T03:05:40.817Z,2.77
2023-04-04T03:08:14.638Z,3.00
2023-04-04T03:10:42.335Z,2.60
2023-04-04T03:13:15.690Z,2.73
2023-04-04T03:15:42.626Z,2.93
2023-04-04T03:18:15.633Z,2.73
2023-04-04T03:20:42.807Z,2.63
2023-04-04T03:23:16.612Z,2.50
2023-04-04T03:25:43.735Z,2.80
2023-04-04T03:28:17.737Z,2.60
2023-04-04T03:30:50.566Z,2.90
2023-04-04T03:33:23.613Z,3.00
2023-04-04T03:35:50.780Z,2.70
2023-04-04T03:38:18.563Z,3.13
2023-04-04T03:40:51.521Z,2.43
2023-04-04T03:43:18.308Z,2.40
2023-04-04T03:45:51.701Z,2.63
2023-04-04T03:48:18.533Z,2.50
2023-04-04T03:50:51.580Z,2.30
2023-04-04T03:53:18.839Z,2.37
2023-04-04T03:55:52.814Z,2.70
2023-04-04T03:58:26.598Z,2.90
2023-04-04T04:00:59.681Z,2.83
2023-04-04T04:03:26.735Z,2.87
2023-04-04T04:06:00.612Z,3.10
2023-04-04T04:08:35.153Z,2.53
2023-04-04T04:11:19.633Z,2.63
2023-04-04T04:13:46.443Z,2.60
2023-04-04T04:16:13.330Z,2.77
2023-04-04T04:18:46.635Z,2.80
2023-04-04T04:21:19.606Z,2.90
2023-04-04T04:23:53.667Z,2.70
2023-04-04T04:26:27.605Z,2.70
2023-04-04T04:28:54.420Z,2.70
2023-04-04T04:31:21.288Z,2.50
2023-04-04T04:33:55.642Z,2.67
2023-04-04T04:36:29.672Z,2.80
2023-04-04T04:39:02.555Z,2.60
2023-04-04T04:41:36.753Z,2.67
2023-04-04T04:44:10.624Z,3.07
2023-04-04T04:46:43.574Z,3.40
2023-04-04T04:49:16.684Z,2.57
2023-04-04T04:51:50.621Z,2.67
2023-04-04T04:54:17.545Z,2.80
2023-04-04T04:56:50.645Z,2.70
2023-04-04T04:59:17.525Z,2.67
2023-04-04T05:01:50.662Z,2.40
2023-04-04T05:04:17.933Z,2.83
2023-04-04T05:06:51.628Z,2.67
2023-04-04T05:09:25.570Z,2.63
2023-04-04T05:11:59.145Z,2.40
2023-04-04T05:14:32.640Z,2.60
2023-04-04T05:16:59.591Z,2.73
2023-04-04T05:19:33.627Z,2.70
2023-04-04T05:22:06.720Z,2.27
2023-04-04T05:24:33.888Z,2.50
2023-04-04T05:27:07.651Z,2.53
2023-04-04T05:29:34.478Z,2.77
2023-04-04T05:32:07.646Z,2.80
2023-04-04T05:34:34.768Z,3.23
2023-04-04T05:37:07.635Z,2.97
2023-04-04T05:39:40.684Z,3.43
2023-04-04T05:42:14.623Z,2.87
2023-04-04T05:44:41.667Z,2.63
2023-04-04T05:47:15.678Z,3.00
2023-04-04T05:49:48.580Z,3.33
2023-04-04T05:52:22.667Z,3.00
2023-04-04T05:54:55.626Z,2.70
2023-04-04T05:57:28.762Z,3.10
2023-04-04T06:00:01.859Z,3.50
2023-04-04T06:02:30.242Z,3.33
2023-04-04T06:05:04.014Z,3.13
2023-04-04T06:07:30.879Z,3.90
2023-04-04T06:10:11.939Z,4.07
2023-04-04T06:12:39.045Z,3.20
2023-04-04T06:15:13.654Z,3.13
2023-04-04T06:17:40.868Z,3.47
2023-04-04T06:20:08.664Z,3.53
2023-04-04T06:22:42.693Z,3.80
2023-04-04T06:25:11.203Z,3.37
2023-04-04T06:27:44.624Z,3.30
2023-04-04T06:30:17.495Z,3.17
2023-04-04T06:32:51.850Z,3.20
2023-04-04T06:35:20.227Z,3.30
2023-04-04T06:37:55.768Z,3.40
2023-04-04T06:40:23.273Z,3.40
2023-04-04T06:42:57.703Z,3.10
2023-04-04T06:45:35.721Z,3.17
2023-04-04T06:48:10.859Z,3.73
2023-04-04T06:50:38.116Z,3.00
2023-04-04T06:53:12.636Z,3.60
2023-04-04T06:55:45.615Z,2.97
2023-04-04T06:58:12.494Z,3.10
2023-04-04T07:00:45.749Z,3.40
2023-04-04T07:03:19.759Z,3.10
2023-04-04T07:05:46.840Z,3.13
2023-04-04T07:08:36.219Z,3.27
2023-04-04T07:11:11.841Z,3.20
2023-04-04T07:13:38.811Z,3.13
2023-04-04T07:16:15.694Z,3.00
2023-04-04T07:18:42.791Z,2.70
2023-04-04T07:21:16.886Z,3.20
2023-04-04T07:23:43.713Z,2.93
2023-04-04T07:26:17.701Z,3.27
2023-04-04T07:28:44.548Z,2.80
2023-04-04T07:31:17.762Z,3.23
2023-04-04T07:33:44.636Z,3.13
2023-04-04T07:36:18.777Z,2.83
2023-04-04T07:38:46.992Z,2.93
2023-04-04T07:41:21.678Z,2.93
2023-04-04T07:43:49.334Z,2.80
2023-04-04T07:46:17.169Z,2.70
2023-04-04T07:48:50.731Z,3.20
2023-04-04T07:51:17.655Z,2.70
2023-04-04T07:53:50.661Z,2.83
2023-04-04T07:56:17.475Z,2.80
2023-04-04T07:58:50.804Z,2.67
2023-04-04T08:01:17.818Z,2.73
2023-04-04T08:03:59.898Z,2.57
2023-04-04T08:06:27.514Z,2.70
2023-04-04T08:09:00.717Z,2.30
2023-04-04T08:11:27.718Z,2.27
2023-04-04T08:14:00.770Z,2.07
2023-04-04T08:16:34.946Z,2.40
2023-04-04T08:19:04.359Z,2.07
2023-04-04T08:21:37.738Z,2.10
2023-04-04T08:24:04.979Z,2.10
2023-04-04T08:26:38.770Z,1.90
2023-04-04T08:29:05.654Z,2.00
2023-04-04T08:31:39.790Z,2.07
2023-04-04T08:34:08.668Z,2.33
2023-04-04T08:36:42.749Z,1.80
2023-04-04T08:39:09.980Z,2.07
2023-04-04T08:41:44.394Z,1.80
2023-04-04T08:44:18.338Z,2.10
2023-04-04T08:46:52.687Z,1.80
2023-04-04T08:49:21.736Z,2.00
2023-04-04T08:52:03.787Z,1.93
2023-04-04T08:54:31.526Z,2.17
2023-04-04T08:57:04.812Z,2.00
2023-04-04T08:59:32.045Z,1.80
2023-04-04T09:02:20.842Z,1.83
2023-04-04T09:05:02.487Z,2.30
2023-04-04T09:07:39.364Z,1.90
2023-04-04T09:10:15.074Z,1.97
2023-04-04T09:12:57.299Z,2.03
2023-04-04T09:15:36.823Z,2.53
2023-04-04T09:18:03.889Z,2.50
2023-04-04T09:20:44.970Z,2.30
2023-04-04T09:23:20.828Z,1.97
2023-04-04T09:26:03.682Z,2.10
2023-04-04T09:28:38.780Z,1.90
2023-04-04T09:31:14.856Z,2.10
2023-04-04T09:33:50.799Z,2.20
2023-04-04T09:36:24.786Z,2.37
2023-04-04T09:38:53.847Z,2.00
2023-04-04T09:41:28.817Z,2.33
2023-04-04T09:43:58.158Z,2.40
2023-04-04T09:46:34.975Z,2.65
2023-04-04T09:49:10.237Z,2.17
2023-04-04T09:51:48.719Z,2.17
2023-04-04T09:54:28.721Z,2.60
2023-04-04T09:57:03.774Z,2.40
2023-04-04T09:59:37.893Z,2.30
2023-04-04T10:02:16.862Z,2.40
2023-04-04T10:04:56.538Z,3.58
2023-04-04T10:07:32.531Z,2.25
2023-04-04T10:10:13.853Z,2.10
2023-04-04T10:12:41.976Z,2.05
2023-04-04T10:15:16.901Z,1.90
2023-04-04T10:17:46.002Z,2.30
2023-04-04T10:20:19.852Z,1.98
2023-04-04T10:22:47.258Z,1.95
2023-04-04T10:25:20.805Z,2.50
2023-04-04T10:27:49.057Z,2.90
2023-04-04T10:30:23.767Z,1.88
2023-04-04T10:33:01.827Z,2.00
2023-04-04T10:35:36.840Z,1.80
2023-04-04T10:38:07.076Z,1.67
2023-04-04T10:40:46.736Z,1.65
2023-04-04T10:43:22.891Z,1.75
2023-04-04T10:45:55.880Z,1.85
2023-04-04T10:48:29.799Z,1.80
2023-04-04T10:51:04.035Z,1.73
2023-04-04T10:53:38.852Z,4.60
2023-04-04T10:56:07.271Z,1.90
2023-04-04T10:58:46.968Z,1.95
2023-04-04T11:01:16.618Z,1.73
2023-04-04T11:04:23.889Z,1.85
2023-04-04T11:07:19.926Z,1.95
2023-04-04T11:09:53.802Z,1.92
2023-04-04T11:12:35.918Z,1.60
2023-04-04T11:15:08.910Z,1.75
2023-04-04T11:17:48.974Z,1.90
2023-04-04T11:20:24.817Z,1.80
2023-04-04T11:23:21.869Z,1.83
2023-04-04T11:25:59.761Z,1.83
2023-04-04T11:28:41.872Z,1.60
2023-04-04T11:31:30.088Z,1.88
2023-04-04T11:34:20.815Z,1.60
2023-04-04T11:36:52.556Z,1.70
2023-04-04T11:39:37.859Z,1.52
2023-04-04T11:42:14.641Z,1.55
2023-04-04T11:44:57.858Z,1.50
2023-04-04T11:47:25.461Z,1.95
2023-04-04T11:50:00.841Z,1.77
2023-04-04T11:52:40.851Z,1.70
2023-04-04T11:55:28.905Z,1.92
2023-04-04T11:57:58.511Z,1.60
2023-04-04T12:00:44.819Z,1.75
2023-04-04T12:03:13.129Z,1.98
2023-04-04T12:05:48.907Z,1.80
2023-04-04T12:08:16.379Z,2.10
2023-04-04T12:10:56.978Z,1.77
2023-04-04T12:13:37.939Z,1.80
2023-04-04T12:16:05.293Z,1.70
2023-04-04T12:18:39.848Z,1.85
2023-04-04T12:21:07.782Z,2.33
2023-04-04T12:23:42.069Z,2.35
2023-04-04T12:26:09.789Z,2.10
2023-04-04T12:28:45.795Z,2.22
2023-04-04T12:31:14.456Z,1.52
2023-04-04T12:33:48.835Z,2.25
2023-04-04T12:36:19.514Z,1.73
2023-04-04T12:39:13.860Z,1.70
2023-04-04T12:41:58.627Z,2.00
2023-04-04T12:44:37.837Z,2.00
2023-04-04T12:47:06.950Z,1.80
2023-04-04T12:49:47.895Z,1.70
2023-04-04T12:52:30.005Z,1.38
2023-04-04T12:55:08.361Z,1.70
2023-04-04T12:57:44.883Z,1.80
2023-04-04T13:00:20.957Z,1.40
2023-04-04T13:02:51.242Z,1.90
2023-04-04T13:05:28.875Z,1.83
2023-04-04T13:08:10.133Z,1.70
2023-04-04T13:11:12.013Z,1.90
2023-04-04T13:13:53.900Z,1.70
2023-04-04T13:16:43.929Z,1.70
2023-04-04T13:19:11.006Z,1.95
2023-04-04T13:21:46.852Z,1.90
2023-04-04T13:24:20.921Z,1.90
2023-04-04T13:26:54.962Z,2.05
2023-04-04T13:29:22.275Z,1.73
2023-04-04T13:31:56.009Z,1.90
2023-04-04T13:34:24.528Z,1.55
2023-04-04T13:36:58.979Z,1.83
2023-04-04T13:39:33.839Z,2.53
2023-04-04T13:42:02.531Z,2.33
2023-04-04T13:44:36.009Z,1.83
2023-04-04T13:47:03.183Z,2.03
2023-04-04T13:49:36.968Z,1.88
2023-04-04T13:52:04.030Z,2.10
2023-04-04T13:54:37.917Z,2.20
2023-04-04T13:57:04.777Z,2.30
2023-04-04T13:59:37.925Z,2.10
2023-04-04T14:02:05.115Z,2.17
2023-04-04T14:04:39.058Z,2.13
2023-04-04T14:07:35.073Z,2.17
2023-04-04T14:10:08.892Z,2.30
2023-04-04T14:12:42.932Z,2.00
2023-04-04T14:15:16.910Z,2.25
2023-04-04T14:17:43.854Z,2.00
2023-04-04T14:20:17.880Z,2.10
2023-04-04T14:22:50.853Z,2.10
2023-04-04T14:25:17.939Z,2.00
2023-04-04T14:27:44.841Z,1.67
2023-04-04T14:30:19.879Z,1.80
2023-04-04T14:32:52.979Z,1.90
2023-04-04T14:35:19.994Z,1.70
2023-04-04T14:37:55.205Z,1.80
2023-04-04T14:40:29.928Z,1.95
2023-04-04T14:43:02.875Z,1.90
2023-04-04T14:45:36.044Z,1.85
2023-04-04T14:48:10.090Z,2.20
2023-04-04T14:50:44.899Z,2.10
2023-04-04T14:53:12.069Z,2.38
2023-04-04T14:55:45.961Z,2.35
2023-04-04T14:58:13.363Z,1.92
2023-04-04T15:00:47.925Z,2.03
2023-04-04T15:03:15.263Z,2.30
2023-04-04T15:05:48.912Z,1.80
2023-04-04T15:08:15.937Z,2.40
2023-04-04T15:10:55.917Z,2.20
2023-04-04T15:13:22.947Z,2.05
2023-04-04T15:15:56.946Z,1.98
2023-04-04T15:18:30.937Z,1.92
2023-04-04T15:20:58.952Z,2.30
2023-04-04T15:23:31.898Z,2.00
2023-04-04T15:25:58.778Z,2.10
2023-04-04T15:28:31.991Z,2.45
2023-04-04T15:31:08.933Z,2.00
2023-04-04T15:33:42.890Z,1.90
2023-04-04T15:36:15.875Z,2.45
2023-04-04T15:38:49.001Z,2.30
2023-04-04T15:41:16.214Z,2.20
2023-04-04T15:43:50.001Z,2.10
2023-04-04T15:46:17.046Z,2.00
2023-04-04T15:48:50.967Z,2.58
2023-04-04T15:51:18.662Z,2.35
2023-04-04T15:53:51.936Z,3.30
2023-04-04T15:56:24.996Z,2.88
2023-04-04T15:58:51.992Z,2.60
2023-04-04T16:01:25.199Z,3.38
2023-04-04T16:03:52.442Z,15.25
2023-04-04T16:06:25.905Z,6.80
2023-04-04T16:08:58.913Z,4.78
2023-04-04T16:11:38.936Z,2.65
2023-04-04T16:14:15.931Z,2.40
2023-04-04T16:16:43.077Z,2.40
2023-04-04T16:19:16.980Z,2.40
2023-04-04T16:21:44.473Z,2.53
2023-04-04T16:24:19.995Z,2.10
2023-04-04T16:26:50.327Z,2.60
2023-04-04T16:29:24.927Z,2.20
2023-04-04T16:31:53.088Z,2.20
2023-04-04T16:34:26.953Z,2.20
2023-04-04T16:36:54.060Z,2.35
2023-04-04T16:39:27.936Z,2.28
2023-04-04T16:41:54.922Z,2.15
2023-04-04T16:44:29.056Z,2.10
2023-04-04T16:46:56.886Z,2.25
2023-04-04T16:49:30.004Z,2.20
2023-04-04T16:52:04.075Z,2.58
2023-04-04T16:54:38.072Z,2.28
2023-04-04T16:57:04.986Z,2.28
2023-04-04T16:59:31.898Z,2.60
2023-04-04T17:02:05.023Z,2.58
2023-04-04T17:04:41.212Z,2.25
2023-04-04T17:07:15.000Z,2.90
2023-04-04T17:09:55.056Z,2.67
2023-04-04T17:12:28.007Z,2.70
2023-04-04T17:15:02.081Z,2.80
2023-04-04T17:17:35.977Z,2.65
2023-04-04T17:20:03.288Z,2.60
2023-04-04T17:22:37.969Z,2.53
2023-04-04T17:25:05.269Z,3.03
2023-04-04T17:27:38.982Z,2.38
2023-04-04T17:30:08.466Z,2.50
2023-04-04T17:32:42.109Z,2.55
2023-04-04T17:35:09.605Z,2.50
2023-04-04T17:37:43.077Z,2.70
2023-04-04T17:40:10.353Z,3.30
2023-04-04T17:42:44.086Z,2.72
2023-04-04T17:45:21.134Z,2.83
2023-04-04T17:47:47.935Z,2.83
2023-04-04T17:50:20.996Z,3.05
2023-04-04T17:52:47.872Z,2.90
2023-04-04T17:55:23.033Z,3.03
2023-04-04T17:57:49.922Z,2.55
2023-04-04T18:00:23.928Z,2.80
2023-04-04T18:02:51.011Z,3.35
2023-04-04T18:05:25.084Z,3.40
2023-04-04T18:07:52.497Z,2.92
2023-04-04T18:10:32.132Z,3.05
2023-04-04T18:13:05.672Z,2.78
2023-04-04T18:15:39.989Z,2.72
2023-04-04T18:18:13.977Z,2.97
2023-04-04T18:20:41.344Z,2.90
2023-04-04T18:23:16.089Z,3.28
2023-04-04T18:25:50.054Z,3.03
2023-04-04T18:28:17.086Z,3.40
2023-04-04T18:30:51.027Z,3.30
2023-04-04T18:33:24.117Z,2.88
2023-04-04T18:35:58.025Z,3.30
2023-04-04T18:38:31.989Z,3.47
2023-04-04T18:40:58.870Z,2.70
2023-04-04T18:43:31.986Z,2.72
2023-04-04T18:45:59.889Z,3.05
2023-04-04T18:48:33.999Z,3.13
2023-04-04T18:51:08.000Z,3.22
2023-04-04T18:53:35.005Z,3.42
2023-04-04T18:56:08.047Z,3.40
2023-04-04T18:58:41.087Z,2.97
2023-04-04T19:01:07.965Z,4.22
2023-04-04T19:03:49.218Z,3.45
2023-04-04T19:06:23.056Z,4.03
2023-04-04T19:08:50.011Z,4.28
2023-04-04T19:11:31.081Z,4.97
2023-04-04T19:13:58.002Z,5.55
2023-04-04T19:16:31.172Z,5.57
2023-04-04T19:18:58.052Z,6.30
2023-04-04T19:21:31.058Z,6.55
2023-04-04T19:24:05.141Z,6.65
2023-04-04T19:26:32.422Z,5.82
2023-04-04T19:29:06.056Z,6.93
2023-04-04T19:31:46.155Z,9.37
2023-04-04T19:34:15.344Z,11.30
2023-04-04T19:36:49.064Z,8.87
2023-04-04T19:39:20.141Z,7.00
2023-04-04T19:42:00.114Z,6.53
2023-04-04T19:44:26.984Z,5.10
2023-04-04T19:47:08.108Z,4.90
2023-04-04T19:49:35.747Z,4.13
2023-04-04T19:52:11.128Z,3.67
2023-04-04T19:54:41.624Z,3.70
2023-04-04T19:57:26.102Z,3.30
2023-04-04T20:00:02.088Z,3.60
2023-04-04T20:02:40.278Z,3.10
2023-04-04T20:05:29.723Z,4.00
2023-04-04T20:08:03.154Z,3.80
2023-04-04T20:10:48.182Z,4.13
2023-04-04T20:13:22.112Z,4.30
2023-04-04T20:15:54.777Z,3.80
2023-04-04T20:18:30.083Z,3.97
2023-04-04T20:21:10.063Z,4.00
2023-04-04T20:24:01.076Z,4.10
2023-04-04T20:26:36.610Z,4.10
2023-04-04T20:29:14.015Z,4.40
2023-04-04T20:31:53.167Z,4.07
2023-04-04T20:34:54.050Z,3.70
2023-04-04T20:37:23.798Z,3.97
2023-04-04T20:40:00.228Z,4.10
2023-04-04T20:42:29.991Z,4.10
2023-04-04T20:45:07.117Z,3.90
2023-04-04T20:47:48.995Z,3.90
2023-04-04T20:50:25.138Z,4.23
2023-04-04T20:53:05.480Z,4.33
2023-04-04T20:55:43.283Z,4.00
2023-04-04T20:58:24.173Z,4.03
2023-04-04T21:00:58.115Z,3.53
2023-04-04T21:03:32.341Z,3.97
2023-04-04T21:06:17.085Z,4.43
2023-04-04T21:08:48.605Z,4.60
2023-04-04T21:11:37.109Z,3.90
2023-04-04T21:14:06.483Z,4.10
2023-04-04T21:16:40.163Z,4.43
2023-04-04T21:19:07.237Z,4.13
2023-04-04T21:21:41.135Z,4.40
2023-04-04T21:24:12.077Z,4.10
2023-04-04T21:26:51.565Z,4.13
2023-04-04T21:29:25.912Z,5.07
2023-04-04T21:32:02.105Z,4.47
2023-04-04T21:34:29.881Z,4.13
2023-04-04T21:37:09.263Z,4.43
2023-04-04T21:39:43.153Z,5.23
2023-04-04T21:42:10.272Z,5.10
2023-04-04T21:44:45.089Z,5.23
2023-04-04T21:47:13.839Z,4.80
2023-04-04T21:49:48.124Z,5.00
2023-04-04T21:52:15.036Z,4.83
2023-04-04T21:54:49.037Z,5.20
2023-04-04T21:57:16.008Z,5.60
2023-04-04T21:59:49.086Z,5.67
2023-04-04T22:02:16.166Z,5.20
2023-04-04T22:04:49.120Z,4.83
2023-04-04T22:07:16.022Z,4.83
2023-04-04T22:09:50.116Z,4.80
2023-04-04T22:12:30.083Z,4.63
2023-04-04T22:15:06.109Z,5.10
2023-04-04T22:17:39.183Z,4.90
2023-04-04T22:20:10.247Z,4.53
2023-04-04T22:22:45.149Z,4.87
2023-04-04T22:25:13.011Z,4.30
2023-04-04T22:27:46.103Z,4.77
2023-04-04T22:30:20.142Z,3.73
2023-04-04T22:32:46.974Z,4.10
2023-04-04T22:35:20.160Z,3.90
2023-04-04T22:37:47.036Z,4.47
2023-04-04T22:40:21.179Z,3.90
2023-04-04T22:42:48.002Z,4.30
2023-04-04T22:45:21.204Z,3.90
2023-04-04T22:47:48.495Z,4.17
2023-04-04T22:50:27.025Z,5.33
2023-04-04T22:53:02.061Z,4.00
2023-04-04T22:55:29.597Z,4.53
2023-04-04T22:58:03.133Z,4.40
2023-04-04T23:00:36.212Z,4.60
2023-04-04T23:03:04.386Z,4.83
2023-04-04T23:05:38.104Z,5.10
2023-04-04T23:08:05.110Z,5.17
2023-04-04T23:10:38.304Z,4.50
2023-04-04T23:13:05.421Z,4.90
2023-04-04T23:15:42.187Z,4.53
2023-04-04T23:18:09.514Z,4.47
2023-04-04T23:20:44.418Z,4.50
2023-04-04T23:23:19.232Z,4.73
2023-04-04T23:25:52.106Z,4.10
2023-04-04T23:28:25.157Z,4.80
2023-04-04T23:30:52.830Z,4.00
2023-04-04T23:33:26.072Z,5.13
2023-04-04T23:35:52.901Z,5.20
2023-04-04T23:38:26.107Z,4.20
2023-04-04T23:40:54.535Z,4.67
2023-04-04T23:43:28.137Z,3.93
2023-04-04T23:46:02.200Z,4.53
2023-04-04T23:48:36.192Z,4.57
2023-04-04T23:51:10.182Z,4.57
2023-04-04T23:53:37.129Z,4.30
2023-04-04T23:56:10.106Z,4.40
2023-04-04T23:58:44.244Z,4.77
